Time;durP1;ratioP1;P1;durP2;ratioP2;P2;SDS_P1;SDS_P2;PMS_P1;PMS_P2;Temp;Humidity;BMP_temperature;BMP_pressure;BME280_temperature;BME280_humidity;BME280_pressure;Samples;Min_cycle;Max_cycle;Signal;HPM_P1;HPM_P2
2023/06/09 00:00:56;;;;;;;;;;;;;;;20.34;57.62;99436.84;5091880;28;20352;-42
2023/06/09 00:03:21;;;;;;;;;;;;;;;20.55;57.17;99432.97;5092129;28;20395;-40
2023/06/09 00:05:47;;;;;;;;;;;;;;;20.57;57.14;99438.91;5091502;28;19919;-40
2023/06/09 00:08:12;;;;;;;;;;;;;;;20.71;56.64;99436.41;5091712;28;19949;-40
2023/06/09 00:10:38;;;;;;;;;;;;;;;20.76;56.43;99449.94;5091646;28;20299;-40
2023/06/09 00:13:03;;;;;;;;;;;;;;;20.86;56.48;99452.56;5091497;28;20411;-40
2023/06/09 00:15:28;;;;;;;;;;;;;;;20.91;56.19;99459.88;5091443;28;19961;-41
2023/06/09 00:17:54;;;;;;;;;;;;;;;20.99;56.58;99458.47;5091525;28;19966;-40
2023/06/09 00:20:19;;;;;;;;;;;;;;;21.11;55.53;99447.31;5091378;28;20555;-41
2023/06/09 00:22:45;;;;;;;;;;;;;;;21.22;55.49;99443.44;5091614;28;19912;-40
2023/06/09 00:25:11;;;;;;;;;;;;;;;20.96;55.71;99451.72;5091191;28;19961;-40
2023/06/09 00:27:37;;;;;;;;;;;;;;;20.96;55.75;99451.72;5091247;28;19916;-40
2023/06/09 00:30:02;;;;;;;;;;;;;;;20.95;55.81;99447.41;5090952;28;19916;-41
2023/06/09 00:32:28;;;;;;;;;;;;;;;20.86;55.90;99449.06;5091185;28;19917;-41
2023/06/09 00:34:53;;;;;;;;;;;;;;;21.01;55.53;99448.97;5091079;28;19988;-40
2023/06/09 00:37:19;;;;;;;;;;;;;;;20.94;55.60;99447.66;5090939;28;19912;-40
2023/06/09 00:39:44;;;;;;;;;;;;;;;20.97;55.52;99442.50;5091200;28;19919;-40
2023/06/09 00:42:09;;;;;;;;;;;;;;;20.94;56.14;99439.56;5091057;28;19912;-40
2023/06/09 00:44:35;;;;;;;;;;;;;;;21.09;56.16;99437.59;5091007;28;19969;-41
2023/06/09 00:47:00;;;;;;;;;;;;;;;21.10;55.85;99438.38;5090925;28;19916;-41
2023/06/09 00:49:26;;;;;;;;;;;;;;;21.06;56.22;99440.03;5090229;28;19912;-41
2023/06/09 00:51:51;;;;;;;;;;;;;;;21.05;55.84;99433.00;5091012;28;19935;-41
2023/06/09 00:54:18;;;;;;;;;;;;;;;21.00;55.73;99433.84;5090925;28;19912;-41
2023/06/09 00:56:43;;;;;;;;;;;;;;;21.03;55.62;99433.28;5091115;28;19912;-41
2023/06/09 00:59:10;;;;;;;;;;;;;;;20.64;56.52;99442.16;5091188;28;19912;-41
2023/06/09 01:01:37;;;;;;;;;;;;;;;20.81;56.10;99433.69;5091375;28;19995;-41
2023/06/09 01:04:02;;;;;;;;;;;;;;;20.83;55.97;99436.13;5091679;28;19961;-41
2023/06/09 01:07:00;;;;;;;;;;;;;;;20.92;55.80;99430.91;5091306;28;19916;-41
2023/06/09 01:09:44;;;;;;;;;;;;;;;20.95;55.87;99441.97;5079214;28;19912;-43
2023/06/09 01:12:09;;;;;;;;;;;;;;;20.97;56.04;99442.50;5091855;28;20008;-42
2023/06/09 01:14:43;;;;;;;;;;;;;;;21.06;55.65;99432.72;5091396;28;19947;-41
2023/06/09 01:17:11;;;;;;;;;;;;;;;21.11;55.46;99439.97;5091264;28;19912;-41
2023/06/09 01:19:40;;;;;;;;;;;;;;;21.16;55.40;99436.47;5091110;28;19912;-41
2023/06/09 01:22:14;;;;;;;;;;;;;;;21.16;55.25;99439.97;5091560;28;20011;-41
2023/06/09 01:24:45;;;;;;;;;;;;;;;21.21;55.27;99439.09;5091458;28;19922;-41
2023/06/09 01:27:11;;;;;;;;;;;;;;;21.12;55.67;99441.63;5091487;28;19954;-41
2023/06/09 01:29:40;;;;;;;;;;;;;;;21.21;55.45;99445.34;5091642;28;19993;-41
2023/06/09 01:32:06;;;;;;;;;;;;;;;21.11;55.69;99442.69;5090938;28;20023;-40
2023/06/09 01:34:32;;;;;;;;;;;;;;;21.10;55.80;99441.09;5090997;28;20352;-41
2023/06/09 01:36:58;;;;;;;;;;;;;;;21.17;55.17;99446.16;5091155;28;19977;-41
2023/06/09 01:39:24;;;;;;;;;;;;;;;21.18;55.21;99445.91;5090960;28;19912;-41
2023/06/09 01:41:49;;;;;;;;;;;;;;;21.21;55.28;99444.50;5091020;28;19969;-40
2023/06/09 01:44:14;;;;;;;;;;;;;;;21.19;55.67;99452.94;5090970;28;19947;-40
2023/06/09 01:46:41;;;;;;;;;;;;;;;21.18;55.25;99445.09;5090979;28;19924;-41
2023/06/09 01:49:16;;;;;;;;;;;;;;;21.11;55.91;99444.59;5090947;28;19934;-41
2023/06/09 01:51:44;;;;;;;;;;;;;;;20.98;56.17;99440.59;5091217;28;20057;-41
2023/06/09 01:54:10;;;;;;;;;;;;;;;20.95;56.43;99441.19;5090995;28;19919;-41
2023/06/09 01:56:37;;;;;;;;;;;;;;;21.03;56.36;99446.00;5090887;28;19923;-41
2023/06/09 01:59:05;;;;;;;;;;;;;;;21.02;55.74;99425.47;5090987;28;19970;-40
2023/06/09 02:01:31;;;;;;;;;;;;;;;21.01;55.83;99421.13;5093929;28;20395;-41
2023/06/09 02:03:57;;;;;;;;;;;;;;;21.11;55.27;99428.38;5093404;28;20011;-42
2023/06/09 02:06:23;;;;;;;;;;;;;;;21.10;55.21;99430.25;5094089;28;19966;-41
2023/06/09 02:08:48;;;;;;;;;;;;;;;21.13;55.39;99426.97;5094353;28;19912;-41
2023/06/09 02:11:14;;;;;;;;;;;;;;;21.10;54.91;99430.25;5094172;28;20018;-41
2023/06/09 02:13:39;;;;;;;;;;;;;;;21.13;55.27;99426.19;5094109;28;20428;-41
2023/06/09 02:16:04;;;;;;;;;;;;;;;21.17;55.13;99429.94;5093928;28;19912;-41
2023/06/09 02:18:32;;;;;;;;;;;;;;;21.07;54.84;99428.13;5094117;28;19995;-40
2023/06/09 02:20:57;;;;;;;;;;;;;;;20.95;55.39;99425.75;5093909;28;19919;-41
2023/06/09 02:23:23;;;;;;;;;;;;;;;20.84;55.14;99427.69;5093729;28;20022;-41
2023/06/09 02:25:48;;;;;;;;;;;;;;;20.83;54.60;99436.13;5093900;28;19919;-40
2023/06/09 02:28:16;;;;;;;;;;;;;;;20.64;55.46;99428.63;5093805;28;19927;-41
2023/06/09 02:30:42;;;;;;;;;;;;;;;20.66;55.72;99434.56;5093921;28;19931;-41
2023/06/09 02:33:07;;;;;;;;;;;;;;;20.77;54.90;99429.09;5093944;28;19912;-40
2023/06/09 02:35:32;;;;;;;;;;;;;;;20.03;55.96;99432.31;5093996;28;20382;-41
2023/06/09 02:37:58;;;;;;;;;;;;;;;20.12;55.96;99435.25;5093955;28;19951;-41
2023/06/09 02:40:26;;;;;;;;;;;;;;;19.97;56.76;99429.88;5094158;28;20121;-41
2023/06/09 02:42:51;;;;;;;;;;;;;;;19.46;57.90;99441.53;5093904;28;19912;-41
2023/06/09 02:45:17;;;;;;;;;;;;;;;19.45;58.45;99437.19;5093770;28;19919;-40
2023/06/09 02:47:42;;;;;;;;;;;;;;;19.48;58.50;99423.19;5092630;28;19916;-40
2023/06/09 02:50:08;;;;;;;;;;;;;;;19.93;57.29;99429.63;5093418;28;19916;-40
2023/06/09 02:52:34;;;;;;;;;;;;;;;20.15;56.80;99429.31;5093844;28;19919;-41
2023/06/09 02:55:00;;;;;;;;;;;;;;;20.19;56.29;99429.59;5093797;28;19919;-41
2023/06/09 02:57:26;;;;;;;;;;;;;;;19.98;57.05;99439.63;5093427;28;20256;-41
2023/06/09 02:59:51;;;;;;;;;;;;;;;20.04;57.01;99435.81;5093452;28;19912;-41
2023/06/09 03:02:17;;;;;;;;;;;;;;;20.14;56.58;99443.09;5093420;28;19912;-41
2023/06/09 03:04:42;;;;;;;;;;;;;;;20.41;55.63;99438.16;5093024;28;19964;-41
2023/06/09 03:07:09;;;;;;;;;;;;;;;20.33;56.08;99438.72;5093198;28;19923;-41
2023/06/09 03:09:37;;;;;;;;;;;;;;;20.42;55.97;99444.38;5092521;28;20007;-42
2023/06/09 03:12:03;;;;;;;;;;;;;;;19.98;57.13;99448.53;5091335;28;19912;-41
2023/06/09 03:14:28;;;;;;;;;;;;;;;19.68;57.92;99441.22;5092940;28;20337;-41
2023/06/09 03:16:54;;;;;;;;;;;;;;;19.68;57.55;99441.22;5092819;28;19955;-41
2023/06/09 03:19:19;;;;;;;;;;;;;;;19.78;58.06;99441.28;5093008;28;19919;-41
2023/06/09 03:21:45;;;;;;;;;;;;;;;19.87;57.39;99446.91;5092883;28;19916;-41
2023/06/09 03:24:11;;;;;;;;;;;;;;;19.87;57.62;99442.31;5093193;28;20004;-41
2023/06/09 03:26:36;;;;;;;;;;;;;;;19.28;58.93;99445.53;5092475;28;20320;-40
2023/06/09 03:29:02;;;;;;;;;;;;;;;19.58;58.60;99452.03;5092154;28;20000;-42
2023/06/09 03:31:27;;;;;;;;;;;;;;;19.68;58.40;99442.03;5092019;28;19924;-41
2023/06/09 03:33:52;;;;;;;;;;;;;;;19.60;59.12;99452.59;5093129;28;19990;-41
2023/06/09 03:36:18;;;;;;;;;;;;;;;20.04;58.42;99449.31;5092639;28;20381;-42
2023/06/09 03:38:43;;;;;;;;;;;;;;;19.21;60.03;99459.31;5092504;28;19912;-42
2023/06/09 03:41:08;;;;;;;;;;;;;;;19.14;60.74;99448.75;5092366;28;19912;-41
2023/06/09 03:43:33;;;;;;;;;;;;;;;19.75;58.65;99458.00;5092259;28;19916;-40
2023/06/09 03:45:59;;;;;;;;;;;;;;;20.02;58.36;99457.69;5092304;28;20396;-41
2023/06/09 03:48:25;;;;;;;;;;;;;;;20.81;56.22;99462.59;5092245;28;19931;-41
2023/06/09 03:50:50;;;;;;;;;;;;;;;21.20;55.50;99457.25;5092290;28;19962;-41
2023/06/09 03:53:16;;;;;;;;;;;;;;;21.59;54.15;99459.16;5092593;28;20330;-41
2023/06/09 03:55:41;;;;;;;;;;;;;;;21.70;53.13;99456.38;5092499;28;19920;-41
2023/06/09 03:58:06;;;;;;;;;;;;;;;22.06;52.43;99448.72;5091982;28;20333;-40
2023/06/09 04:00:32;;;;;;;;;;;;;;;22.00;52.40;99450.66;5092250;28;19916;-41
2023/06/09 04:02:57;;;;;;;;;;;;;;;22.53;51.55;99449.84;5092200;28;20360;-41
2023/06/09 04:05:22;;;;;;;;;;;;;;;22.69;50.70;99452.38;5091721;28;19912;-42
2023/06/09 04:07:48;;;;;;;;;;;;;;;22.87;50.33;99458.94;5091858;28;19916;-42
2023/06/09 04:10:13;;;;;;;;;;;;;;;23.36;49.29;99457.69;5091752;28;19943;-42
2023/06/09 04:12:41;;;;;;;;;;;;;;;23.88;48.21;99457.69;5092032;28;20276;-42
2023/06/09 04:15:06;;;;;;;;;;;;;;;24.29;46.89;99454.22;5089621;28;19912;-42
2023/06/09 04:17:32;;;;;;;;;;;;;;;24.28;46.61;99449.91;5091727;28;19912;-41
2023/06/09 04:19:57;;;;;;;;;;;;;;;24.56;46.54;99456.13;5091254;28;20330;-42
2023/06/09 04:22:23;;;;;;;;;;;;;;;25.14;45.17;99457.34;5091778;28;19912;-42
2023/06/09 04:24:48;;;;;;;;;;;;;;;25.62;43.65;99455.97;5090850;28;19916;-42
2023/06/09 04:27:15;;;;;;;;;;;;;;;25.88;42.78;99461.59;5091037;28;19924;-44
2023/06/09 04:29:41;;;;;;;;;;;;;;;26.14;43.04;99465.28;5091469;28;19939;-41
2023/06/09 04:32:07;;;;;;;;;;;;;;;26.49;41.71;99464.63;5088073;28;20384;-41
2023/06/09 04:34:39;;;;;;;;;;;;;;;26.72;41.05;99466.13;5091023;28;19928;-41
2023/06/09 04:37:08;;;;;;;;;;;;;;;26.53;41.77;99460.91;5091667;28;19938;-42
2023/06/09 04:39:33;;;;;;;;;;;;;;;26.42;42.54;99459.59;5088580;28;19912;-42
2023/06/09 04:42:03;;;;;;;;;;;;;;;26.90;41.00;99455.25;5090956;28;20337;-42
2023/06/09 04:44:28;;;;;;;;;;;;;;;27.09;40.63;99460.41;5091049;28;19912;-42
2023/06/09 04:46:54;;;;;;;;;;;;;;;27.73;39.17;99470.66;5091029;28;20276;-41
2023/06/09 04:49:20;;;;;;;;;;;;;;;28.04;38.29;99472.38;5090967;28;19920;-42
2023/06/09 04:51:46;;;;;;;;;;;;;;;27.07;39.81;99462.66;5091719;28;19916;-42
2023/06/09 04:54:28;;;;;;;;;;;;;;;26.94;40.48;99458.97;5094675;28;19916;-42
2023/06/09 04:56:57;;;;;;;;;;;;;;;27.10;39.98;99465.53;5090261;28;19923;-41
2023/06/09 04:59:22;;;;;;;;;;;;;;;27.88;38.68;99461.16;5089765;28;19912;-41
2023/06/09 05:01:48;;;;;;;;;;;;;;;28.56;37.41;99455.78;5085839;28;19917;-41
2023/06/09 05:04:13;;;;;;;;;;;;;;;28.61;37.03;99452.03;5091437;28;20303;-46
2023/06/09 05:06:39;;;;;;;;;;;;;;;29.12;36.63;99458.28;5111738;28;19923;-46
2023/06/09 05:09:06;;;;;;;;;;;;;;;29.08;36.29;99449.16;5093165;28;19916;-46
2023/06/09 05:11:31;;;;;;;;;;;;;;;29.62;35.31;99451.09;5090667;28;19912;-46
2023/06/09 05:13:56;;;;;;;;;;;;;;;30.05;34.74;99454.56;5091506;28;19912;-46
2023/06/09 05:16:25;;;;;;;;;;;;;;;30.45;33.98;99451.97;5092939;28;19916;-47
2023/06/09 05:18:51;;;;;;;;;;;;;;;30.98;33.23;99455.56;5111981;28;20347;-47
2023/06/09 05:21:16;;;;;;;;;;;;;;;31.26;32.45;99462.22;5093148;28;20034;-47
2023/06/09 05:23:42;;;;;;;;;;;;;;;31.53;32.51;99466.16;5090695;28;20275;-47
2023/06/09 05:26:07;;;;;;;;;;;;;;;31.97;31.72;99460.66;5088077;28;19943;-47
2023/06/09 05:28:32;;;;;;;;;;;;;;;32.20;31.30;99458.09;5090731;28;19921;-47
2023/06/09 05:30:58;;;;;;;;;;;;;;;32.17;31.05;99458.78;5090875;28;19924;-47
2023/06/09 05:33:23;;;;;;;;;;;;;;;32.05;31.45;99453.41;5092550;28;19923;-47
2023/06/09 05:35:49;;;;;;;;;;;;;;;32.47;30.83;99456.38;5093962;28;20003;-46
2023/06/09 05:38:14;;;;;;;;;;;;;;;32.16;31.07;99448.97;5104658;28;19983;-47
2023/06/09 05:40:39;;;;;;;;;;;;;;;32.48;30.95;99451.66;5095918;28;19924;-47
2023/06/09 05:43:05;;;;;;;;;;;;;;;33.01;30.21;99454.81;5094810;28;19919;-47
2023/06/09 05:45:31;;;;;;;;;;;;;;;33.36;29.84;99454.00;5093995;28;19919;-46
2023/06/09 05:47:56;;;;;;;;;;;;;;;33.70;29.03;99457.03;5097132;28;19980;-46
2023/06/09 05:50:21;;;;;;;;;;;;;;;34.08;28.76;99463.59;5110578;28;19943;-47
2023/06/09 05:52:47;;;;;;;;;;;;;;;33.96;28.20;99459.06;5094006;28;19918;-47
2023/06/09 05:55:12;;;;;;;;;;;;;;;34.41;28.32;99462.97;5093907;28;19991;-47
2023/06/09 05:57:40;;;;;;;;;;;;;;;34.41;27.95;99454.69;5095821;28;20367;-47
2023/06/09 06:00:09;;;;;;;;;;;;;;;34.48;28.07;99453.97;5093548;28;19924;-48
2023/06/09 06:02:34;;;;;;;;;;;;;;;34.65;28.07;99450.72;5085998;28;19916;-47
2023/06/09 06:05:01;;;;;;;;;;;;;;;34.70;27.97;99451.59;5093801;28;19965;-46
2023/06/09 06:07:26;;;;;;;;;;;;;;;35.04;27.75;99458.75;5093100;28;19939;-43
2023/06/09 06:09:52;;;;;;;;;;;;;;;35.42;27.13;99458.81;5092197;28;20333;-43
2023/06/09 06:12:17;;;;;;;;;;;;;;;35.48;27.09;99454.53;5092185;28;19911;-41
2023/06/09 06:14:42;;;;;;;;;;;;;;;35.41;26.85;99452.50;5092649;28;19982;-41
2023/06/09 06:17:07;;;;;;;;;;;;;;;35.55;26.38;99445.53;5092289;28;20347;-43
2023/06/09 06:19:33;;;;;;;;;;;;;;;35.12;27.07;99454.09;5092582;28;19912;-42
2023/06/09 06:21:58;;;;;;;;;;;;;;;35.36;27.08;99447.31;5092428;28;19930;-41
2023/06/09 06:24:23;;;;;;;;;;;;;;;35.47;26.47;99435.56;5091941;28;19912;-42
2023/06/09 06:26:49;;;;;;;;;;;;;;;35.50;26.79;99440.34;5092062;28;19920;-42
2023/06/09 06:29:14;;;;;;;;;;;;;;;35.25;26.67;99438.09;5092395;28;19920;-42
2023/06/09 06:31:40;;;;;;;;;;;;;;;35.06;27.44;99439.03;5092211;28;20015;-42
2023/06/09 06:34:05;;;;;;;;;;;;;;;34.77;27.37;99446.16;5092622;28;19919;-43
2023/06/09 06:36:30;;;;;;;;;;;;;;;35.07;27.08;99442.56;5092626;28;19912;-42
2023/06/09 06:38:55;;;;;;;;;;;;;;;35.35;26.88;99442.94;5092522;28;19912;-37
2023/06/09 06:41:21;;;;;;;;;;;;;;;34.14;27.83;99434.53;5092542;28;19923;-36
2023/06/09 06:43:49;;;;;;;;;;;;;;;35.00;26.80;99438.56;5092383;28;20344;-34
2023/06/09 06:46:15;;;;;;;;;;;;;;;35.53;26.08;99436.78;5091535;28;19932;-36
2023/06/09 06:48:41;;;;;;;;;;;;;;;35.66;26.41;99423.50;5091039;28;19922;-36
2023/06/09 06:51:07;;;;;;;;;;;;;;;35.61;26.40;99435.72;5092325;28;20061;-36
2023/06/09 06:53:33;;;;;;;;;;;;;;;36.12;25.22;99435.00;5092645;28;20364;-36
2023/06/09 06:55:59;;;;;;;;;;;;;;;36.32;25.11;99432.78;5092979;28;19969;-36
2023/06/09 06:58:27;;;;;;;;;;;;;;;36.53;24.74;99429.34;5092296;28;19916;-36
2023/06/09 07:00:53;;;;;;;;;;;;;;;36.71;24.62;99423.16;5092336;28;19920;-36
2023/06/09 07:03:19;;;;;;;;;;;;;;;37.01;24.72;99422.88;5092347;28;19923;-35
2023/06/09 07:05:44;;;;;;;;;;;;;;;37.49;23.92;99413.53;5092584;28;19912;-36
2023/06/09 07:08:10;;;;;;;;;;;;;;;37.00;24.42;99414.97;5092297;28;20413;-36
2023/06/09 07:10:36;;;;;;;;;;;;;;;37.22;24.48;99411.09;5092063;28;19919;-36
2023/06/09 07:13:05;;;;;;;;;;;;;;;37.22;24.14;99419.41;5091675;28;19912;-36
2023/06/09 07:15:30;;;;;;;;;;;;;;;36.75;24.49;99410.91;5091862;28;20447;-36
2023/06/09 07:17:55;;;;;;;;;;;;;;;36.79;24.20;99411.72;5091789;28;19990;-35
2023/06/09 07:20:21;;;;;;;;;;;;;;;36.37;24.74;99404.75;5090211;28;19911;-35
2023/06/09 07:22:50;;;;;;;;;;;;;;;35.75;25.81;99405.41;5092109;28;20006;-36
2023/06/09 07:25:16;;;;;;;;;;;;;;;35.22;25.32;99405.66;5105816;28;19949;-36
2023/06/09 07:27:42;;;;;;;;;;;;;;;34.41;26.71;99395.91;5094874;28;19916;-35
2023/06/09 07:30:07;;;;;;;;;;;;;;;35.72;25.44;99402.63;5097287;28;19934;-36
2023/06/09 07:32:33;;;;;;;;;;;;;;;36.03;25.16;99403.28;5103625;28;20299;-36
2023/06/09 07:34:59;;;;;;;;;;;;;;;36.37;24.54;99401.19;5103457;28;19919;-36
2023/06/09 07:37:25;;;;;;;;;;;;;;;35.49;25.47;99397.25;5095937;28;20011;-36
2023/06/09 07:39:50;;;;;;;;;;;;;;;35.74;26.13;99401.09;5108170;28;19986;-35
2023/06/09 07:42:15;;;;;;;;;;;;;;;35.22;25.78;99397.38;5097046;28;20324;-35
2023/06/09 07:44:41;;;;;;;;;;;;;;;36.16;24.69;99385.19;5101457;28;19916;-36
2023/06/09 07:47:06;;;;;;;;;;;;;;;37.00;24.54;99395.56;5092365;28;19916;-35
2023/06/09 07:49:31;;;;;;;;;;;;;;;37.05;24.46;99392.41;5107677;28;19919;-35
2023/06/09 07:51:57;;;;;;;;;;;;;;;37.31;24.04;99391.31;5094569;28;20006;-36
2023/06/09 07:54:22;;;;;;;;;;;;;;;37.14;23.24;99396.41;5104601;28;20356;-37
2023/06/09 07:56:49;;;;;;;;;;;;;;;37.23;23.80;99386.97;5101634;28;20435;-37
2023/06/09 07:59:18;;;;;;;;;;;;;;;37.40;23.83;99396.50;5111146;28;20645;-36
2023/06/09 08:01:44;;;;;;;;;;;;;;;37.69;23.53;99389.03;5099611;28;19923;-36
2023/06/09 08:04:09;;;;;;;;;;;;;;;37.68;23.14;99396.56;5090859;28;19916;-35
2023/06/09 08:06:34;;;;;;;;;;;;;;;37.11;23.07;99399.16;5093945;28;20085;-36
2023/06/09 08:09:00;;;;;;;;;;;;;;;36.77;23.16;99396.66;5103024;28;19924;-36
2023/06/09 08:11:26;;;;;;;;;;;;;;;35.97;24.96;99397.31;5105059;28;19915;-36
2023/06/09 08:13:51;;;;;;;;;;;;;;;34.85;26.28;99396.13;5099731;28;19919;-35
2023/06/09 08:16:16;;;;;;;;;;;;;;;34.85;25.45;99396.13;5090397;28;19919;-37
2023/06/09 08:18:42;;;;;;;;;;;;;;;35.48;24.33;99403.97;5096280;28;20387;-36
2023/06/09 08:21:07;;;;;;;;;;;;;;;35.70;24.13;99400.25;5095107;28;19918;-37
2023/06/09 08:23:32;;;;;;;;;;;;;;;35.75;24.24;99388.81;5103729;28;19918;-36
2023/06/09 08:25:58;;;;;;;;;;;;;;;35.66;24.50;99388.31;5103029;28;19935;-36
2023/06/09 08:28:23;;;;;;;;;;;;;;;35.28;25.38;99387.56;5100426;28;19947;-35
2023/06/09 08:30:51;;;;;;;;;;;;;;;34.16;26.38;99381.75;5103224;28;20315;-36
2023/06/09 08:33:16;;;;;;;;;;;;;;;33.97;26.16;99382.59;5106701;28;19936;-37
2023/06/09 08:35:42;;;;;;;;;;;;;;;34.36;26.36;99376.91;5103909;28;20051;-36
2023/06/09 08:38:07;;;;;;;;;;;;;;;34.17;27.08;99366.75;5098790;28;20375;-36
2023/06/09 08:40:34;;;;;;;;;;;;;;;34.69;26.22;99367.91;5090378;28;20339;-37
2023/06/09 08:43:00;;;;;;;;;;;;;;;34.68;26.70;99371.84;5090579;28;20008;-36
2023/06/09 08:45:26;;;;;;;;;;;;;;;34.79;25.81;99369.22;5091600;28;19923;-35
2023/06/09 08:47:59;;;;;;;;;;;;;;;34.33;26.40;99359.13;5086811;28;20034;-36
2023/06/09 08:50:27;;;;;;;;;;;;;;;33.92;27.64;99358.06;5096019;28;19922;-37
2023/06/09 08:52:53;;;;;;;;;;;;;;;32.83;28.66;99365.50;5102461;28;20003;-36
2023/06/09 08:55:19;;;;;;;;;;;;;;;33.01;28.40;99363.09;5094895;28;19995;-37
2023/06/09 08:57:46;;;;;;;;;;;;;;;31.51;29.88;99366.72;5088664;28;20729;-37
2023/06/09 09:00:11;;;;;;;;;;;;;;;31.70;30.23;99358.59;5103678;28;20014;-36
2023/06/09 09:02:37;;;;;;;;;;;;;;;31.57;29.82;99357.09;5097824;28;20007;-36
2023/06/09 09:05:03;;;;;;;;;;;;;;;31.28;30.02;99358.25;5091117;28;19912;-36
2023/06/09 09:07:28;;;;;;;;;;;;;;;31.57;30.12;99362.59;5094229;28;19919;-37
2023/06/09 09:09:54;;;;;;;;;;;;;;;31.68;29.98;99351.84;5108915;28;20230;-36
2023/06/09 09:12:19;;;;;;;;;;;;;;;31.72;30.29;99358.22;5104424;28;20098;-36
2023/06/09 09:14:45;;;;;;;;;;;;;;;32.35;29.67;99346.38;5100963;28;19916;-36
2023/06/09 09:17:11;;;;;;;;;;;;;;;33.36;28.56;99342.91;5095443;28;19916;-37
2023/06/09 09:19:37;;;;;;;;;;;;;;;34.00;26.91;99344.00;5094371;28;20344;-36
2023/06/09 09:22:08;;;;;;;;;;;;;;;34.32;26.20;99340.16;5093993;28;19961;-37
2023/06/09 09:24:35;;;;;;;;;;;;;;;34.26;25.94;99332.19;5093092;28;20070;-36
2023/06/09 09:27:00;;;;;;;;;;;;;;;34.24;26.63;99333.75;5086134;28;20538;-36
2023/06/09 09:29:26;;;;;;;;;;;;;;;34.84;26.51;99331.00;5092718;28;20425;-36
2023/06/09 09:31:58;;;;;;;;;;;;;;;34.49;26.33;99331.31;5094015;28;19947;-35
2023/06/09 09:34:24;;;;;;;;;;;;;;;33.31;27.78;99327.47;5092869;28;19916;-35
2023/06/09 09:36:53;;;;;;;;;;;;;;;32.97;27.53;99329.19;5094191;28;19916;-35
2023/06/09 09:39:18;;;;;;;;;;;;;;;33.07;27.72;99328.56;5093250;28;19962;-36
2023/06/09 09:42:02;;;;;;;;;;;;;;;32.49;28.51;99332.91;5092377;28;19943;-35
2023/06/09 09:44:41;;;;;;;;;;;;;;;33.17;28.10;99322.50;5092758;28;19969;-36
2023/06/09 09:47:08;;;;;;;;;;;;;;;32.78;28.41;99316.22;5093016;28;20019;-36
2023/06/09 09:49:33;;;;;;;;;;;;;;;32.16;29.47;99308.59;5093563;28;19912;-36
2023/06/09 09:51:59;;;;;;;;;;;;;;;31.75;30.17;99317.06;5093373;28;19919;-36
2023/06/09 09:54:26;;;;;;;;;;;;;;;32.50;29.66;99306.16;5093557;28;20094;-36
2023/06/09 09:56:51;;;;;;;;;;;;;;;32.60;29.12;99319.41;5094046;28;19935;-36
2023/06/09 09:59:17;;;;;;;;;;;;;;;31.40;31.01;99319.72;5093758;28;20340;-36
2023/06/09 10:01:44;;;;;;;;;;;;;;;31.10;31.34;99311.06;5093240;28;19912;-36
2023/06/09 10:04:10;;;;;;;;;;;;;;;31.33;30.73;99314.00;5093706;28;19913;-35
2023/06/09 10:06:37;;;;;;;;;;;;;;;31.88;30.10;99305.97;5093260;28;19916;-36
2023/06/09 10:09:04;;;;;;;;;;;;;;;32.30;29.20;99306.16;5094197;28;19916;-37
2023/06/09 10:11:31;;;;;;;;;;;;;;;32.20;29.82;99298.47;5094304;28;19912;-36
2023/06/09 10:13:57;;;;;;;;;;;;;;;31.45;30.23;99316.66;5093549;28;19912;-36
2023/06/09 10:16:23;;;;;;;;;;;;;;;30.93;30.99;99315.72;5094064;28;19977;-36
2023/06/09 10:18:48;;;;;;;;;;;;;;;31.33;31.12;99306.56;5093681;28;19920;-36
2023/06/09 10:21:14;;;;;;;;;;;;;;;31.94;30.78;99291.56;5091908;28;19916;-36
2023/06/09 10:23:40;;;;;;;;;;;;;;;31.61;30.44;99293.94;5093839;28;19919;-36
2023/06/09 10:26:07;;;;;;;;;;;;;;;31.40;30.53;99299.66;5093455;28;19974;-36
2023/06/09 10:28:33;;;;;;;;;;;;;;;31.93;29.75;99298.25;5093102;28;19966;-36
2023/06/09 10:30:58;;;;;;;;;;;;;;;32.56;28.94;99284.66;5093023;28;19963;-36
2023/06/09 10:33:33;;;;;;;;;;;;;;;32.04;29.96;99284.75;5092653;28;20068;-36
2023/06/09 10:35:59;;;;;;;;;;;;;;;32.07;30.54;99278.53;5093035;28;19912;-36
2023/06/09 10:38:30;;;;;;;;;;;;;;;32.32;30.53;99279.06;5092979;28;19919;-36
2023/06/09 10:40:58;;;;;;;;;;;;;;;31.30;30.86;99279.00;5092986;28;20283;-36
2023/06/09 10:43:27;;;;;;;;;;;;;;;31.69;30.59;99274.50;5093058;28;19912;-36
2023/06/09 10:45:55;;;;;;;;;;;;;;;31.67;30.86;99270.50;5092873;28;19916;-35
2023/06/09 10:48:40;;;;;;;;;;;;;;;30.34;32.69;99262.25;5092395;28;20368;-36
2023/06/09 10:51:24;;;;;;;;;;;;;;;31.64;30.92;99263.75;5092794;28;19916;-36
2023/06/09 10:54:09;;;;;;;;;;;;;;;33.13;29.40;99244.47;5092611;28;20010;-36
2023/06/09 10:56:35;;;;;;;;;;;;;;;32.32;30.32;99256.25;5092721;28;20018;-36
2023/06/09 10:59:01;;;;;;;;;;;;;;;32.86;29.85;99247.13;5092550;28;20358;-35
2023/06/09 11:01:26;;;;;;;;;;;;;;;32.07;31.09;99255.72;5092469;28;19944;-35
2023/06/09 11:03:51;;;;;;;;;;;;;;;31.37;31.32;99227.75;5092332;28;19993;-35
2023/06/09 11:06:17;;;;;;;;;;;;;;;32.00;30.79;99239.03;5092334;28;19955;-36
2023/06/09 11:09:01;;;;;;;;;;;;;;;32.13;29.85;99244.06;5092393;28;19962;-36
2023/06/09 11:11:50;;;;;;;;;;;;;;;32.64;30.04;99239.63;5092367;28;19994;-36
2023/06/09 11:14:34;;;;;;;;;;;;;;;31.89;30.68;99250.59;5089192;28;19918;-36
2023/06/09 11:17:19;;;;;;;;;;;;;;;32.01;30.32;99244.16;5092468;28;20276;-36
2023/06/09 11:19:44;;;;;;;;;;;;;;;31.61;30.91;99245.22;5092442;28;20360;-35
2023/06/09 11:22:11;;;;;;;;;;;;;;;32.19;30.52;99236.31;5092077;28;19995;-37
2023/06/09 11:24:49;;;;;;;;;;;;;;;32.10;30.47;99241.22;5091910;28;19912;-35
2023/06/09 11:27:17;;;;;;;;;;;;;;;32.18;30.71;99231.16;5091936;28;19920;-35
2023/06/09 11:29:43;;;;;;;;;;;;;;;31.34;31.42;99235.94;5092023;28;20401;-35
2023/06/09 11:32:08;;;;;;;;;;;;;;;31.53;31.51;99229.72;5091369;28;20380;-36
2023/06/09 11:34:51;;;;;;;;;;;;;;;31.15;32.19;99222.88;5091812;28;20334;-37
2023/06/09 11:37:17;;;;;;;;;;;;;;;31.86;30.87;99226.56;5092093;28;20002;-37
2023/06/09 11:39:43;;;;;;;;;;;;;;;31.74;29.94;99221.19;5092072;28;19948;-35
2023/06/09 11:42:08;;;;;;;;;;;;;;;31.23;31.32;99221.91;5092155;28;19916;-36
2023/06/09 11:44:35;;;;;;;;;;;;;;;31.31;30.39;99226.41;5092072;28;19912;-37
2023/06/09 11:47:21;;;;;;;;;;;;;;;31.98;29.72;99219.34;5091452;28;19923;-36
2023/06/09 11:49:46;;;;;;;;;;;;;;;32.92;29.30;99203.53;5091552;28;19916;-35
2023/06/09 11:52:11;;;;;;;;;;;;;;;33.57;28.94;99207.38;5091785;28;19969;-36
2023/06/09 11:54:45;;;;;;;;;;;;;;;33.82;28.00;99194.75;5091633;28;20321;-36
2023/06/09 11:57:12;;;;;;;;;;;;;;;33.37;28.61;99196.41;5091220;28;19968;-37
2023/06/09 11:59:37;;;;;;;;;;;;;;;33.09;28.96;99193.97;5091746;28;19988;-35
2023/06/09 12:02:02;;;;;;;;;;;;;;;33.05;28.68;99195.88;5091461;28;20368;-37
2023/06/09 12:04:28;;;;;;;;;;;;;;;32.43;29.72;99207.72;5090953;28;19912;-37
2023/06/09 12:06:53;;;;;;;;;;;;;;;31.94;30.35;99194.50;5090998;28;19920;-35
2023/06/09 12:09:23;;;;;;;;;;;;;;;32.12;30.13;99192.13;5091462;28;20319;-36
2023/06/09 12:11:49;;;;;;;;;;;;;;;31.50;30.62;99194.69;5090975;28;19919;-35
2023/06/09 12:14:14;;;;;;;;;;;;;;;31.03;32.04;99188.03;5091015;28;20401;-36
2023/06/09 12:16:40;;;;;;;;;;;;;;;31.51;31.04;99194.34;5091094;28;19916;-36
2023/06/09 12:19:05;;;;;;;;;;;;;;;31.80;30.70;99186.75;5091226;28;19916;-36
2023/06/09 12:21:33;;;;;;;;;;;;;;;32.15;30.22;99183.97;5091085;28;19913;-35
2023/06/09 12:23:59;;;;;;;;;;;;;;;31.31;31.47;99198.16;5091292;28;19918;-35
2023/06/09 12:26:24;;;;;;;;;;;;;;;30.79;31.85;99189.78;5090884;28;19912;-37
2023/06/09 12:28:53;;;;;;;;;;;;;;;29.73;33.66;99178.13;5091043;28;19920;-37
2023/06/09 12:31:19;;;;;;;;;;;;;;;30.09;33.46;99176.47;5090538;28;20040;-37
2023/06/09 12:33:48;;;;;;;;;;;;;;;30.38;32.78;99180.81;5090855;28;19961;-36
2023/06/09 12:36:14;;;;;;;;;;;;;;;30.62;32.73;99170.88;5090524;28;20022;-37
2023/06/09 12:38:45;;;;;;;;;;;;;;;30.46;33.14;99187.31;5090782;28;19912;-36
2023/06/09 12:41:11;;;;;;;;;;;;;;;30.75;31.64;99174.38;5090530;28;19912;-36
2023/06/09 12:43:42;;;;;;;;;;;;;;;31.21;31.63;99163.75;5089694;28;19912;-37
2023/06/09 12:46:08;;;;;;;;;;;;;;;30.73;32.08;99162.91;5088816;28;19940;-36